Time;durP1;ratioP1;P1;durP2;ratioP2;P2;SDS_P1;SDS_P2;PMS_P1;PMS_P2;Temp;Humidity;BMP_temperature;BMP_pressure;BME280_temperature;BME280_humidity;BME280_pressure;Samples;Min_cycle;Max_cycle;Signal;HPM_P1;HPM_P2
2023/02/08 00:00:13;;;;;;;14.05;7.15;;;;;;;2.30;54.62;103859.56;4827435;29;123927;-71
2023/02/08 00:02:40;;;;;;;16.20;7.15;;;;;;;2.26;54.66;103857.66;4847266;29;115445;-71
2023/02/08 00:05:07;;;;;;;14.65;6.97;;;;;;;2.24;54.69;103854.09;4829633;29;115755;-69
2023/02/08 00:07:35;;;;;;;16.38;6.95;;;;;;;2.22;54.78;103850.53;4844719;29;123994;-70
2023/02/08 00:10:04;;;;;;;16.70;7.45;;;;;;;2.19;54.80;103853.03;4845390;29;124138;-69
2023/02/08 00:12:35;;;;;;;14.32;7.20;;;;;;;2.19;54.91;103850.44;4838609;29;113520;-70
2023/02/08 00:15:03;;;;;;;17.38;7.60;;;;;;;2.19;54.92;103851.31;4838882;29;114405;-70
2023/02/08 00:17:31;;;;;;;14.55;6.88;;;;;;;2.20;54.99;103841.72;4842624;28;125712;-70
2023/02/08 00:19:58;;;;;;;14.52;7.35;;;;;;;2.20;55.20;103844.34;4826609;29;123089;-70
2023/02/08 00:22:25;;;;;;;15.68;7.40;;;;;;;2.21;55.17;103843.53;4842482;29;114439;-70
2023/02/08 00:24:53;;;;;;;14.02;7.55;;;;;;;2.22;54.99;103840.06;4832041;29;114306;-70
2023/02/08 00:27:39;;;;;;;14.23;7.60;;;;;;;2.23;55.01;103842.75;4835420;29;122768;-70
2023/02/08 00:30:07;;;;;;;12.93;7.25;;;;;;;2.23;54.99;103839.25;4830401;29;123482;-70
2023/02/08 00:32:35;;;;;;;12.93;7.30;;;;;;;2.23;54.84;103841.88;4831342;29;113481;-70
2023/02/08 00:35:02;;;;;;;14.48;7.88;;;;;;;2.23;55.09;103847.09;4842021;29;113062;-70
2023/02/08 00:37:30;;;;;;;15.13;7.57;;;;;;;2.21;54.98;103843.53;4844279;29;124228;-70
2023/02/08 00:40:17;;;;;;;15.88;7.60;;;;;;;2.18;54.91;103840.78;4843083;29;123753;-70
2023/02/08 00:42:44;;;;;;;12.52;6.88;;;;;;;2.17;54.90;103844.22;4841177;28;114316;-70
2023/02/08 00:45:12;;;;;;;15.32;7.28;;;;;;;2.16;55.08;103839.84;4837530;29;113107;-70
2023/02/08 00:47:39;;;;;;;15.05;7.40;;;;;;;2.14;54.74;103840.66;4845520;28;123938;-70
2023/02/08 00:50:07;;;;;;;17.38;7.00;;;;;;;2.12;54.85;103844.06;4821707;29;123485;-70
2023/02/08 00:52:37;;;;;;;14.18;6.60;;;;;;;2.10;55.03;103841.38;4843129;29;96977;-70
2023/02/08 00:58:11;;;;;;;15.65;6.85;;;;;;;2.06;54.82;103834.25;4830346;29;123383;-70
2023/02/08 01:00:57;;;;;;;13.63;7.38;;;;;;;2.04;55.03;103841.16;4841661;29;122862;-70
2023/02/08 01:03:24;;;;;;;;;;;;;;;2.01;54.95;103841.00;4822870;29;114133;-71
2023/02/08 01:05:52;;;;;;;13.00;7.10;;;;;;;1.99;54.83;103827.00;4843062;29;114042;-71
2023/02/08 01:08:20;;;;;;;15.77;7.45;;;;;;;1.97;55.00;103828.66;4831401;29;123283;-71
2023/02/08 01:11:07;;;;;;;13.25;7.38;;;;;;;1.96;55.05;103837.34;4830564;29;124209;-71
2023/02/08 01:13:35;;;;;;;;;;;;;;;1.94;54.92;103832.06;4846452;29;114264;-72
2023/02/08 01:16:09;;;;;;;17.60;7.35;;;;;;;1.92;54.98;103827.59;4830761;29;112777;-71
2023/02/08 01:18:38;;;;;;;13.02;7.00;;;;;;;1.91;54.95;103828.44;4823188;29;124175;-70
2023/02/08 01:21:13;;;;;;;16.38;7.78;;;;;;;1.89;54.98;103824.88;4823387;29;122958;-71
2023/02/08 01:23:42;;;;;;;13.55;7.95;;;;;;;1.91;55.05;103828.44;4836946;29;113910;-71
2023/02/08 01:26:11;;;;;;;18.13;8.27;;;;;;;1.90;55.01;103816.19;4837033;28;114146;-71
2023/02/08 01:28:39;;;;;;;15.45;7.35;;;;;;;1.89;55.08;103814.41;4844879;28;123659;-71
2023/02/08 01:31:13;;;;;;;15.30;8.18;;;;;;;1.90;55.25;103816.19;4847945;29;123962;-70
2023/02/08 01:33:41;;;;;;;16.83;8.07;;;;;;;1.90;55.27;103810.97;4839067;28;114632;-70
2023/02/08 01:36:09;;;;;;;15.85;8.13;;;;;;;1.92;55.16;103819.75;4823844;28;113098;-70
2023/02/08 01:38:37;;;;;;;14.85;7.70;;;;;;;1.93;55.12;103816.31;4838828;28;122833;-70
2023/02/08 01:41:07;;;;;;;16.83;8.20;;;;;;;1.94;55.31;103818.09;4850972;29;123937;-70
2023/02/08 01:44:03;;;;;;;17.35;8.13;;;;;;;1.94;55.41;103818.09;4835747;29;113231;-70
2023/02/08 01:46:35;;;;;;;19.30;8.10;;;;;;;1.95;55.27;103814.66;4840501;29;114278;-71
2023/02/08 01:49:18;;;;;;;17.55;8.82;;;;;;;1.96;55.24;103816.44;4824042;29;122931;-71
2023/02/08 01:52:11;;;;;;;18.55;8.57;;;;;;;1.94;55.04;103828.53;4827011;29;123019;-71
2023/02/08 01:55:00;;;;;;;15.82;8.63;;;;;;;1.93;55.16;103826.78;4843458;28;113735;-71
2023/02/08 01:57:28;;;;;;;15.95;7.78;;;;;;;1.91;55.13;103828.44;4845755;29;114365;-70
2023/02/08 02:00:00;;;;;;;14.77;7.85;;;;;;;1.88;55.31;103828.31;4826123;29;123356;-71
2023/02/08 02:02:28;;;;;;;16.83;8.30;;;;;;;1.85;55.14;103822.97;4841063;28;124265;-70
2023/02/08 02:04:55;;;;;;;18.90;7.63;;;;;;;1.83;55.04;103820.28;4841371;29;114337;-70
2023/02/08 02:07:42;;;;;;;17.20;7.57;;;;;;;1.83;55.12;103808.94;4829284;28;113305;-70
2023/02/08 02:10:24;;;;;;;16.60;7.25;;;;;;;1.83;55.09;103808.94;4843376;28;123800;-70
2023/02/08 02:12:57;;;;;;;15.27;7.82;;;;;;;1.81;55.05;103815.81;4843658;29;124165;-72
2023/02/08 02:15:24;;;;;;;15.38;7.90;;;;;;;1.80;54.88;103808.81;4834587;29;113638;-70
2023/02/08 02:17:51;;;;;;;15.80;8.27;;;;;;;1.80;55.21;103808.81;4826907;29;114165;-70
2023/02/08 02:20:44;;;;;;;16.50;8.05;;;;;;;1.79;55.18;103813.19;4835044;29;123727;-70
2023/02/08 02:23:43;;;;;;;17.65;8.00;;;;;;;1.77;55.06;103813.94;4841740;28;124018;-70
2023/02/08 02:26:38;;;;;;;14.77;7.85;;;;;;;1.73;55.14;103808.59;4842167;28;114570;-70
2023/02/08 02:29:30;;;;;;;16.90;8.27;;;;;;;1.71;55.06;103810.25;4847950;28;114359;-70
2023/02/08 02:32:04;;;;;;;15.95;8.05;;;;;;;1.70;55.03;103805.84;4833227;28;123283;-70
2023/02/08 02:34:57;;;;;;;17.23;8.10;;;;;;;1.67;54.93;103813.56;4848726;28;123960;-70
2023/02/08 02:37:52;;;;;;;17.73;8.93;;;;;;;1.62;54.84;103808.97;4842483;28;114118;-70
2023/02/08 02:40:39;;;;;;;15.85;8.02;;;;;;;1.55;54.96;103813.09;4842969;28;114195;-70
2023/02/08 02:46:46;;;;;;;15.45;8.02;;;;;;;1.49;54.98;103807.63;4838003;29;123121;-71
2023/02/08 02:49:31;;;;;;;13.25;7.45;;;;;;;1.46;55.02;103812.69;4828144;29;114608;-70
2023/02/08 02:52:17;;;;;;;13.67;7.97;;;;;;;1.44;55.09;103809.16;4848321;29;113469;-71
2023/02/08 02:54:50;;;;;;;16.23;7.65;;;;;;;1.43;55.08;103808.25;4849554;28;126463;-70
2023/02/08 02:57:29;;;;;;;16.02;8.02;;;;;;;1.42;55.09;103810.81;4839421;29;123657;-70
2023/02/08 02:59:57;;;;;;;14.27;7.85;;;;;;;1.42;55.19;103816.03;4847392;29;114131;-70
2023/02/08 03:02:26;;;;;;;14.27;7.97;;;;;;;1.41;55.12;103812.50;4848189;28;114096;-70
2023/02/08 03:04:55;;;;;;;16.73;8.30;;;;;;;1.42;55.10;103805.56;4845495;29;123834;-70
2023/02/08 03:07:35;;;;;;;15.00;8.45;;;;;;;1.41;55.11;103814.22;4843851;28;123869;-70
2023/02/08 03:10:02;;;;;;;16.80;8.10;;;;;;;1.39;55.10;103805.44;4844704;28;114390;-70
2023/02/08 03:12:45;;;;;;;15.93;8.05;;;;;;;1.38;55.05;103808.91;4833307;29;114978;-70
2023/02/08 03:15:12;;;;;;;17.98;9.18;;;;;;;1.36;55.19;103807.09;4841433;29;124421;-70
2023/02/08 03:18:10;;;;;;;18.23;8.85;;;;;;;1.35;55.11;103802.69;4838812;29;124628;-70
2023/02/08 03:20:42;;;;;;;19.83;9.23;;;;;;;1.34;55.09;103797.44;4840334;29;114042;-70
2023/02/08 03:23:22;;;;;;;16.98;8.65;;;;;;;1.32;55.27;103799.97;4836125;29;113526;-70
2023/02/08 03:29:15;;;;;;;16.38;8.43;;;;;;;1.31;55.26;103787.72;4844063;29;124025;-70
2023/02/08 03:31:46;;;;;;;14.63;8.38;;;;;;;1.33;55.18;103795.63;4841098;29;115558;-70
2023/02/08 03:34:21;;;;;;;16.00;7.85;;;;;;;1.33;55.37;103793.91;4809178;28;114033;-70
2023/02/08 03:36:52;;;;;;;15.68;7.82;;;;;;;1.34;55.29;103787.88;4842505;29;124065;-70
2023/02/08 03:39:24;;;;;;;15.40;8.00;;;;;;;1.36;55.44;103791.44;4842733;28;123928;-70
2023/02/08 03:41:57;;;;;;;16.70;8.23;;;;;;;1.40;55.27;103802.03;4840225;29;113573;-70
2023/02/08 03:44:31;;;;;;;18.83;8.73;;;;;;;1.41;55.11;103788.13;4844273;28;114134;-70
2023/02/08 03:47:30;;;;;;;16.15;8.07;;;;;;;1.41;55.25;103793.34;4847855;29;123948;-70
2023/02/08 03:50:00;;;;;;;14.65;7.95;;;;;;;1.41;55.05;103793.34;4824862;29;123264;-70
2023/02/08 03:52:30;;;;;;;13.98;7.72;;;;;;;1.41;55.16;103798.56;4838809;29;114218;-69
2023/02/08 03:55:30;;;;;;;16.08;7.97;;;;;;;1.38;55.00;103798.47;4831040;29;113859;-70
2023/02/08 03:58:41;;;;;;;14.70;8.00;;;;;;;1.34;54.93;103797.44;4839550;28;124292;-70
2023/02/08 04:01:16;;;;;;;17.55;8.40;;;;;;;1.31;54.89;103803.41;4840345;28;123378;-70
2023/02/08 04:03:47;;;;;;;14.98;8.23;;;;;;;1.29;54.90;103799.84;4823063;29;113893;-70
2023/02/08 04:06:15;;;;;;;15.77;7.82;;;;;;;1.28;54.98;103802.38;4840359;29;114098;-70
2023/02/08 04:08:43;;;;;;;16.33;7.97;;;;;;;1.26;55.18;103802.34;4808418;29;122941;-70
2023/02/08 04:11:10;;;;;;;16.70;8.27;;;;;;;1.25;54.84;103803.16;4824445;29;124469;-69
2023/02/08 04:13:37;;;;;;;18.85;8.18;;;;;;;1.25;55.13;103797.94;4842767;29;114454;-69
2023/02/08 04:16:05;;;;;;;16.60;7.88;;;;;;;1.25;55.10;103803.16;4843859;28;115613;-69
2023/02/08 04:21:18;;;;;;;17.85;7.97;;;;;;;1.22;55.11;103795.19;4828195;28;122949;-69
2023/02/08 04:23:45;;;;;;;17.13;8.07;;;;;;;1.22;55.07;103797.78;4842731;28;115390;-69
2023/02/08 04:26:12;;;;;;;17.00;7.93;;;;;;;1.23;55.04;103794.38;4825762;29;113988;-70
2023/02/08 04:28:40;;;;;;;16.27;7.82;;;;;;;1.23;55.22;103794.38;4840223;28;124455;-70
2023/02/08 04:31:08;;;;;;;15.82;8.20;;;;;;;1.25;55.02;103797.94;4843079;28;124247;-70
2023/02/08 04:33:35;;;;;;;16.27;8.15;;;;;;;1.26;55.12;103799.72;4843010;28;114746;-70
2023/02/08 04:36:02;;;;;;;12.48;7.22;;;;;;;1.27;55.22;103806.72;4826533;29;112885;-69
2023/02/08 04:38:30;;;;;;;14.60;7.55;;;;;;;1.26;54.89;103799.72;4843830;29;124227;-68
2023/02/08 04:40:57;;;;;;;14.82;7.47;;;;;;;1.26;55.12;103804.94;4837481;29;124563;-73
2023/02/08 04:43:25;;;;;;;12.55;7.40;;;;;;;1.27;54.95;103806.72;4842328;28;114349;-75
2023/02/08 04:45:52;;;;;;;18.50;8.20;;;;;;;1.28;55.06;103803.28;4844804;28;114271;-69
2023/02/08 04:48:20;;;;;;;17.52;7.32;;;;;;;1.28;54.99;103805.91;4835635;29;123302;-68
2023/02/08 04:50:47;;;;;;;14.82;7.40;;;;;;;1.29;54.72;103807.66;4844496;28;123962;-69
2023/02/08 04:53:14;;;;;;;14.32;7.43;;;;;;;1.29;54.99;103805.06;4842733;29;114378;-69
2023/02/08 04:55:41;;;;;;;13.70;7.15;;;;;;;1.29;54.84;103810.28;4826949;28;113163;-68
2023/02/08 04:58:09;;;;;;;16.10;7.55;;;;;;;1.30;54.94;103816.38;4839597;29;123883;-69
2023/02/08 05:00:36;;;;;;;14.73;7.00;;;;;;;1.30;54.86;103817.31;4841261;29;124215;-69
2023/02/08 05:05:59;;;;;;;15.85;7.53;;;;;;;1.26;54.69;103804.94;4843854;29;114167;-68
2023/02/08 05:08:45;;;;;;;15.57;7.45;;;;;;;1.24;54.76;103806.56;4843586;28;124173;-69
2023/02/08 05:11:18;;;;;;;15.00;7.72;;;;;;;1.22;54.77;103808.25;4837708;28;124481;-69
2023/02/08 05:13:45;;;;;;;14.05;7.05;;;;;;;1.20;54.82;103799.47;4840653;28;115148;-69
2023/02/08 05:16:13;;;;;;;14.50;7.43;;;;;;;1.19;54.82;103802.00;4843181;29;114595;-69
2023/02/08 05:18:40;;;;;;;14.27;7.72;;;;;;;1.18;54.57;103808.94;4839470;29;124165;-69
2023/02/08 05:21:07;;;;;;;14.30;7.93;;;;;;;1.17;54.67;103809.78;4831529;29;122983;-69
2023/02/08 05:23:36;;;;;;;15.15;7.80;;;;;;;1.18;54.75;103798.50;4845207;29;115542;-69
2023/02/08 05:26:08;;;;;;;16.08;7.43;;;;;;;1.21;54.83;103806.47;4813657;29;113468;-68
2023/02/08 05:28:36;;;;;;;16.73;8.05;;;;;;;1.22;54.71;103797.78;4838959;29;124452;-69
2023/02/08 05:31:18;;;;;;;18.33;7.75;;;;;;;1.23;54.89;103804.81;4845972;29;123796;-69
2023/02/08 05:33:45;;;;;;;13.50;7.28;;;;;;;1.24;54.81;103800.47;4836753;29;114469;-69
2023/02/08 05:36:13;;;;;;;14.35;7.82;;;;;;;1.24;54.88;103806.56;4844593;29;114076;-69
2023/02/08 05:38:40;;;;;;;14.27;7.82;;;;;;;1.24;54.72;103806.56;4826662;29;123300;-69
2023/02/08 05:41:08;;;;;;;14.85;7.63;;;;;;;1.24;54.85;103798.75;4841002;28;124063;-68
2023/02/08 05:43:35;;;;;;;16.15;7.82;;;;;;;1.25;54.75;103792.72;4841802;29;114037;-68
2023/02/08 05:46:03;;;;;;;13.70;7.53;;;;;;;1.24;54.69;103790.91;4839820;29;114333;-68
2023/02/08 05:48:49;;;;;;;15.30;7.75;;;;;;;1.24;54.76;103795.25;4825739;29;123844;-69
2023/02/08 05:51:16;;;;;;;16.70;7.43;;;;;;;1.22;54.64;103782.13;4830133;29;122836;-69
2023/02/08 05:53:44;;;;;;;17.02;8.18;;;;;;;1.21;54.61;103785.59;4837200;29;114397;-68
2023/02/08 05:56:11;;;;;;;13.88;7.00;;;;;;;1.20;54.90;103789.00;4841584;28;113898;-69
2023/02/08 05:58:38;;;;;;;16.27;7.70;;;;;;;1.21;54.82;103789.94;4843091;28;124482;-69
2023/02/08 06:01:10;;;;;;;17.08;7.93;;;;;;;1.21;54.83;103790.81;4839413;29;123439;-69
2023/02/08 06:03:39;;;;;;;15.73;8.18;;;;;;;1.22;54.82;103792.56;4830325;29;114077;-69
2023/02/08 06:06:09;;;;;;;15.75;7.60;;;;;;;1.23;54.77;103789.16;4846799;29;114996;-69
2023/02/08 06:08:37;;;;;;;15.73;8.10;;;;;;;1.24;54.88;103796.13;4830226;29;123549;-69
2023/02/08 06:11:05;;;;;;;16.77;8.10;;;;;;;1.24;54.66;103793.53;4818049;29;123008;-69
2023/02/08 06:13:51;;;;;;;15.25;7.90;;;;;;;1.24;54.75;103796.13;4840138;29;114560;-69
2023/02/08 06:16:18;;;;;;;13.93;7.38;;;;;;;1.26;54.52;103798.81;4842621;28;114336;-70
2023/02/08 06:18:46;;;;;;;14.95;7.28;;;;;;;1.26;54.75;103788.38;4823983;29;122908;-69
2023/02/08 06:21:13;;;;;;;15.27;7.88;;;;;;;1.26;54.68;103789.28;4841498;29;124361;-69
2023/02/08 06:23:59;;;;;;;15.38;7.90;;;;;;;1.26;54.63;103786.69;4842015;28;114589;-69
2023/02/08 06:26:26;;;;;;;;;;;;;;;1.26;54.72;103778.84;4841903;28;114081;-69
2023/02/08 06:28:53;;;;;;;17.63;7.88;;;;;;;1.27;54.66;103775.38;4843628;29;124274;-69
2023/02/08 06:31:20;;;;;;;19.50;7.97;;;;;;;1.27;54.68;103779.72;4845031;29;123819;-71
2023/02/08 06:33:47;;;;;;;16.70;8.70;;;;;;;1.26;54.64;103778.84;4839666;29;114351;-68
2023/02/08 06:36:15;;;;;;;15.23;8.35;;;;;;;1.27;54.73;103780.63;4839648;28;114071;-68
2023/02/08 06:38:42;;;;;;;14.15;7.60;;;;;;;1.27;54.69;103770.16;4824806;29;123647;-68
2023/02/08 06:41:09;;;;;;;17.00;8.32;;;;;;;1.30;54.74;103777.22;4846591;28;124943;-68
2023/02/08 06:43:37;;;;;;;16.13;7.88;;;;;;;1.31;54.61;103782.50;4838263;29;113565;-68
2023/02/08 06:46:07;;;;;;;16.65;8.35;;;;;;;1.33;54.83;103780.84;4850342;29;114368;-68
2023/02/08 06:48:35;;;;;;;16.65;8.00;;;;;;;1.36;54.72;103786.22;4839613;29;125545;-68
2023/02/08 06:51:03;;;;;;;21.35;8.10;;;;;;;1.38;54.69;103772.34;4824717;29;123374;-68
2023/02/08 06:53:49;;;;;;;15.57;7.82;;;;;;;1.40;54.70;103781.13;4841741;28;114990;-68
2023/02/08 06:56:53;;;;;;;17.42;7.97;;;;;;;1.40;54.88;103783.75;4839915;29;115741;-68
2023/02/08 06:59:39;;;;;;;16.05;7.75;;;;;;;1.41;54.58;103777.66;4826281;28;123003;-68
2023/02/08 07:02:13;;;;;;;;;;;;;;;1.41;54.54;103780.28;4840226;29;124306;-69
2023/02/08 07:04:41;;;;;;;16.08;7.28;;;;;;;1.41;54.54;103777.66;4832577;29;114496;-70
2023/02/08 07:07:08;;;;;;;17.35;8.27;;;;;;;1.41;54.66;103777.66;4827875;28;113168;-70
2023/02/08 07:09:36;;;;;;;16.50;8.00;;;;;;;1.41;54.62;103777.66;4835773;29;124087;-70
2023/02/08 07:12:04;;;;;;;16.80;8.10;;;;;;;1.42;54.48;103782.06;4839295;28;123043;-70
2023/02/08 07:14:32;;;;;;;16.48;8.10;;;;;;;1.42;54.57;103774.25;4843707;29;114424;-70
2023/02/08 07:17:00;;;;;;;16.90;7.70;;;;;;;1.42;54.47;103779.47;4821776;29;114455;-70
2023/02/08 07:19:28;;;;;;;15.98;8.13;;;;;;;1.43;54.51;103778.63;4825139;29;124363;-71
2023/02/08 07:21:56;;;;;;;15.77;7.85;;;;;;;1.43;54.49;103781.22;4839416;28;124148;-70
2023/02/08 07:24:24;;;;;;;20.05;8.38;;;;;;;1.43;54.45;103791.69;4833226;29;113682;-70
2023/02/08 07:27:11;;;;;;;17.63;8.27;;;;;;;1.43;54.49;103786.44;4839947;29;114629;-70
2023/02/08 07:29:38;;;;;;;15.85;7.43;;;;;;;1.42;54.47;103787.31;4826003;29;124466;-69
2023/02/08 07:34:53;;;;;;;17.60;8.35;;;;;;;1.42;54.49;103779.47;4843854;28;114105;-70
2023/02/08 07:37:20;;;;;;;16.15;7.72;;;;;;;1.42;54.59;103784.69;4815313;29;113048;-70
2023/02/08 07:40:06;;;;;;;13.85;7.55;;;;;;;1.41;54.52;103790.72;4833897;28;123256;-70
2023/02/08 07:42:33;;;;;;;17.30;7.93;;;;;;;1.42;54.66;103784.69;4845457;28;124903;-70
2023/02/08 07:45:30;;;;;;;17.77;8.18;;;;;;;1.43;54.51;103781.22;4830127;28;115603;-71
2023/02/08 07:47:57;;;;;;;14.43;8.20;;;;;;;1.46;54.47;103786.59;4842684;28;114907;-71
2023/02/08 07:50:24;;;;;;;17.88;8.55;;;;;;;1.47;54.47;103788.34;4828004;29;124082;-71
2023/02/08 07:52:52;;;;;;;16.30;8.27;;;;;;;1.49;54.78;103786.72;4842622;28;124040;-71
2023/02/08 07:55:20;;;;;;;18.83;8.40;;;;;;;1.51;54.49;103783.34;4841634;29;114967;-71
2023/02/08 07:57:48;;;;;;;19.58;8.20;;;;;;;1.54;54.63;103786.06;4839853;28;113582;-70
2023/02/08 08:00:17;;;;;;;14.27;7.88;;;;;;;1.58;54.46;103787.06;4841316;28;123946;-71
2023/02/08 08:02:44;;;;;;;16.55;8.05;;;;;;;1.61;54.44;103771.53;4842114;28;124086;-71
2023/02/08 08:05:13;;;;;;;16.38;8.40;;;;;;;1.64;54.50;103771.66;4838955;29;114267;-71
2023/02/08 08:10:26;;;;;;;17.00;8.60;;;;;;;1.71;54.64;103763.22;4842852;29;123956;-71
2023/02/08 08:12:53;;;;;;;19.45;8.52;;;;;;;1.74;54.55;103752.88;4847934;29;124327;-71
2023/02/08 08:15:39;;;;;;;15.65;8.45;;;;;;;1.81;54.58;103755.72;4842955;29;113594;-71
2023/02/08 08:18:06;;;;;;;16.45;9.27;;;;;;;1.86;54.56;103762.03;4840756;28;113963;-69
2023/02/08 08:20:34;;;;;;;17.75;8.63;;;;;;;1.91;54.54;103760.47;4840854;29;124111;-68
2023/02/08 08:23:01;;;;;;;18.67;9.07;;;;;;;1.96;54.68;103758.94;4823393;29;123536;-68
2023/02/08 08:25:28;;;;;;;20.90;9.38;;;;;;;2.02;54.67;103763.50;4825730;29;113649;-68
2023/02/08 08:27:55;;;;;;;17.60;9.18;;;;;;;2.06;54.52;103761.06;4845994;28;113859;-68
2023/02/08 08:30:22;;;;;;;21.88;8.77;;;;;;;2.12;54.82;103771.72;4843745;28;123955;-68
2023/02/08 08:32:50;;;;;;;17.42;8.52;;;;;;;2.20;54.67;103765.91;4843107;28;123958;-67
2023/02/08 08:35:36;;;;;;;21.63;9.30;;;;;;;2.25;54.66;103761.75;4831778;29;114325;-68
2023/02/08 08:38:21;;;;;;;16.10;8.57;;;;;;;2.32;54.72;103763.75;4853106;28;115041;-68
2023/02/08 08:40:48;;;;;;;16.48;8.40;;;;;;;2.37;54.45;103756.06;4838789;28;124052;-68
2023/02/08 08:43:16;;;;;;;16.85;8.80;;;;;;;2.42;54.42;103760.63;4842165;28;124245;-68
2023/02/08 08:46:02;;;;;;;20.27;9.20;;;;;;;2.47;54.44;103753.84;4824475;29;112024;-68
2023/02/08 08:48:29;;;;;;;;;;;;;;;2.54;54.57;103744.47;4833319;29;114684;-69
2023/02/08 08:50:56;;;;;;;15.95;8.20;;;;;;;2.59;54.44;103748.16;4848615;28;124563;-68
2023/02/08 08:53:24;;;;;;;18.60;8.93;;;;;;;2.65;54.55;103752.69;4854503;28;124383;-68
2023/02/08 08:55:51;;;;;;;17.48;8.55;;;;;;;2.71;54.48;103748.59;4844922;28;114052;-68
2023/02/08 08:58:19;;;;;;;17.35;8.68;;;;;;;2.77;54.67;103747.91;4848943;28;114057;-69
2023/02/08 09:00:46;;;;;;;18.30;8.07;;;;;;;2.83;54.63;103742.88;4848541;28;125719;-70
2023/02/08 09:03:33;;;;;;;17.17;8.98;;;;;;;2.90;54.33;103734.41;4829260;29;124293;-69
2023/02/08 09:06:01;;;;;;;16.15;8.30;;;;;;;2.99;54.60;103748.63;4840854;29;114892;-69
2023/02/08 09:08:28;;;;;;;17.42;8.57;;;;;;;3.05;54.34;103748.81;4851469;28;114075;-69
2023/02/08 09:11:13;;;;;;;16.42;8.18;;;;;;;3.11;54.62;103749.03;4852029;28;124600;-69
2023/02/08 09:13:41;;;;;;;15.52;8.25;;;;;;;3.20;54.48;103751.97;4854145;29;124227;-72
2023/02/08 09:16:14;;;;;;;14.98;8.20;;;;;;;3.29;54.44;103748.72;4853805;28;114243;-72
2023/02/08 09:18:42;;;;;;;17.88;8.80;;;;;;;3.37;54.38;103751.59;4849619;29;114498;-72
2023/02/08 09:21:28;;;;;;;15.15;7.90;;;;;;;3.47;54.33;103753.69;4846432;28;124922;-72
2023/02/08 09:23:56;;;;;;;16.73;8.75;;;;;;;3.56;54.33;103753.97;4854754;28;123947;-71
2023/02/08 09:26:26;;;;;;;16.63;7.88;;;;;;;3.65;54.45;103749.00;4853927;28;115153;-72
2023/02/08 09:28:54;;;;;;;14.88;8.48;;;;;;;3.76;54.42;103751.06;4857186;29;115005;-72
2023/02/08 09:31:24;;;;;;;15.27;8.02;;;;;;;3.87;54.36;103744.41;4857235;28;124038;-72
2023/02/08 09:33:54;;;;;;;16.92;8.88;;;;;;;3.97;54.15;103746.44;4855220;28;124368;-72
2023/02/08 09:36:23;;;;;;;13.80;7.72;;;;;;;4.06;54.09;103741.47;4853674;28;114255;-72
2023/02/08 09:38:59;;;;;;;18.05;8.32;;;;;;;4.18;54.04;103753.16;4849454;29;114286;-73
2023/02/08 09:41:41;;;;;;;16.52;8.15;;;;;;;4.26;53.95;103749.03;4835886;29;124353;-73
2023/02/08 09:44:20;;;;;;;15.32;8.52;;;;;;;4.35;53.83;103749.31;4848477;28;123277;-74
2023/02/08 09:46:56;;;;;;;16.50;8.45;;;;;;;4.44;53.57;103760.03;4851088;28;112661;-74
2023/02/08 09:49:29;;;;;;;13.00;7.55;;;;;;;4.53;53.69;103753.28;4853428;28;114564;-73
2023/02/08 09:52:01;;;;;;;13.48;7.45;;;;;;;4.60;53.63;103757.84;4849679;28;124090;-72
2023/02/08 09:55:04;;;;;;;15.90;8.38;;;;;;;4.68;53.50;103758.94;4845431;29;123994;-72
2023/02/08 09:57:35;;;;;;;16.55;8.23;;;;;;;4.75;53.38;103750.38;4811501;29;114470;-72
2023/02/08 10:00:18;;;;;;;15.90;8.20;;;;;;;4.83;53.41;103754.06;4842608;28;113912;-72
2023/02/08 10:02:47;;;;;;;15.65;7.90;;;;;;;4.93;53.24;103762.19;4851723;29;124694;-72
2023/02/08 10:05:21;;;;;;;14.98;8.25;;;;;;;5.01;53.14;103755.38;4854815;29;123902;-72
2023/02/08 10:07:48;;;;;;;14.20;8.30;;;;;;;5.10;52.95;103762.63;4843079;29;113360;-73
2023/02/08 10:10:49;;;;;;;13.60;8.23;;;;;;;5.21;53.05;103767.28;4856029;28;113813;-73
2023/02/08 10:13:26;;;;;;;15.50;8.02;;;;;;;5.33;52.88;103771.06;4838121;29;123699;-72
2023/02/08 10:16:20;;;;;;;12.02;6.97;;;;;;;5.42;52.70;103768.66;4850643;28;124047;-73
2023/02/08 10:19:25;;;;;;;13.52;7.85;;;;;;;5.51;52.88;103768.88;4838101;29;115014;-72
2023/02/08 10:22:16;;;;;;;13.93;7.40;;;;;;;5.62;52.72;103774.38;4843440;28;114921;-72
2023/02/08 10:25:20;;;;;;;14.60;7.53;;;;;;;5.73;52.57;103766.75;4831795;28;123837;-72
2023/02/08 10:28:44;;;;;;;13.57;7.22;;;;;;;5.87;52.69;103764.41;4851820;28;124743;-71
2023/02/08 10:31:48;;;;;;;13.35;7.43;;;;;;;5.97;52.29;103767.31;4858085;28;114129;-76
2023/02/08 10:34:25;;;;;;;11.73;7.05;;;;;;;6.08;52.28;103764.00;4856966;28;113561;-76
2023/02/08 10:36:53;;;;;;;12.18;7.07;;;;;;;6.19;52.25;103765.13;4858818;29;123420;-75
2023/02/08 10:39:29;;;;;;;12.75;7.10;;;;;;;6.29;51.82;103759.19;4848783;29;124016;-75
2023/02/08 10:41:56;;;;;;;12.60;6.97;;;;;;;6.41;52.14;103754.16;4832792;29;113739;-75
2023/02/08 10:44:35;;;;;;;10.80;6.60;;;;;;;6.54;51.72;103759.69;4854906;29;113942;-75
2023/02/08 10:47:14;;;;;;;13.48;6.35;;;;;;;6.67;51.63;103761.69;4844512;28;124001;-75
2023/02/08 10:52:47;;;;;;;13.13;6.75;;;;;;;6.88;51.20;103749.75;4852964;28;114395;-75
2023/02/08 10:55:38;;;;;;;11.63;6.40;;;;;;;6.98;51.11;103751.66;4844749;28;114982;-70
2023/02/08 10:58:06;;;;;;;11.82;6.05;;;;;;;7.09;50.94;103749.22;4841466;29;123230;-72
2023/02/08 11:01:11;;;;;;;12.90;6.63;;;;;;;7.18;50.70;103744.97;4848376;28;123602;-71
2023/02/08 11:04:03;;;;;;;11.18;5.93;;;;;;;7.29;50.65;103744.25;4842148;28;114630;-71
2023/02/08 11:06:49;;;;;;;11.27;6.20;;;;;;;7.40;50.44;103745.28;4847883;28;114122;-71
2023/02/08 11:09:28;;;;;;;12.15;5.97;;;;;;;7.49;49.73;103740.16;4829484;29;124518;-71
2023/02/08 11:11:59;;;;;;;9.85;5.40;;;;;;;7.58;49.57;103735.03;4846415;29;123866;-71
2023/02/08 11:14:32;;;;;;;11.32;5.47;;;;;;;7.66;49.25;103731.59;4845345;28;115529;-71
2023/02/08 11:17:29;;;;;;;10.27;4.95;;;;;;;7.73;49.25;103731.72;4841706;29;114603;-71
2023/02/08 11:19:58;;;;;;;10.63;5.32;;;;;;;7.82;49.11;103723.03;4854729;28;124078;-71
2023/02/08 11:22:44;;;;;;;12.80;5.60;;;;;;;7.90;48.70;103726.66;4833605;28;123677;-71
2023/02/08 11:25:30;;;;;;;11.32;5.82;;;;;;;7.98;48.52;103719.72;4843308;28;114765;-71
2023/02/08 11:27:59;;;;;;;;;;;;;;;8.05;49.47;103717.16;4829779;29;112867;-71
2023/02/08 11:30:26;;;;;;;11.25;5.68;;;;;;;8.16;48.95;103718.19;4842941;29;124646;-71
2023/02/08 11:33:17;;;;;;;10.00;5.05;;;;;;;8.25;48.27;103718.28;4849105;28;123890;-71
2023/02/08 11:35:58;;;;;;;11.52;5.65;;;;;;;8.29;48.00;103714.81;4844742;28;115765;-71
2023/02/08 11:38:28;;;;;;;9.75;5.47;;;;;;;8.36;47.99;103711.38;4847943;28;113228;-71
2023/02/08 11:41:17;;;;;;;10.65;5.47;;;;;;;8.44;47.62;103697.34;4843012;29;124087;-71
2023/02/08 11:44:03;;;;;;;9.18;5.35;;;;;;;8.51;47.59;103699.19;4834787;29;123017;-72
2023/02/08 11:46:34;;;;;;;9.95;5.53;;;;;;;8.58;47.56;103696.63;4832572;28;114482;-74
2023/02/08 11:49:02;;;;;;;9.25;5.15;;;;;;;8.65;47.34;103697.59;4846418;29;114444;-74
2023/02/08 11:51:35;;;;;;;9.50;5.00;;;;;;;8.73;46.82;103700.28;4843315;28;123462;-74
2023/02/08 11:54:04;;;;;;;8.85;5.13;;;;;;;8.80;46.70;103695.94;4842229;28;122784;-74
2023/02/08 11:57:09;;;;;;;11.23;5.30;;;;;;;8.90;46.94;103687.22;4848974;28;114819;-74
2023/02/08 11:59:37;;;;;;;10.15;4.68;;;;;;;8.99;46.44;103683.78;4827622;29;114322;-74
2023/02/08 12:02:42;;;;;;;12.48;4.80;;;;;;;9.04;46.07;103682.94;4833585;28;123166;-74
2023/02/08 12:05:14;;;;;;;10.05;4.97;;;;;;;9.11;46.00;103670.63;4833345;29;123068;-75
2023/02/08 12:08:00;;;;;;;10.65;5.07;;;;;;;9.16;46.04;103672.41;4833087;28;115067;-75
2023/02/08 12:10:41;;;;;;;;;;;;;;;9.23;47.08;103664.50;4843092;28;115015;-74
2023/02/08 12:13:44;;;;;;;7.05;4.65;;;;;;;9.29;46.42;103661.94;4846228;28;123970;-74
2023/02/08 12:16:20;;;;;;;8.98;4.75;;;;;;;9.34;46.02;103665.47;4814367;29;123611;-73